sensor_id;sensor_type;location;lat;lon;timestamp;P1;durP1;ratioP1;P2;durP2;ratioP2
6207;SDS011;3137;51.550;7.060;2022-11-04T00:01:29;2.80;;;2.70;;
6207;SDS011;3137;51.550;7.060;2022-11-04T00:03:56;2.20;;;2.20;;
6207;SDS011;3137;51.550;7.060;2022-11-04T00:06:23;3.80;;;2.63;;
6207;SDS011;3137;51.550;7.060;2022-11-04T00:08:50;4.73;;;2.60;;
6207;SDS011;3137;51.550;7.060;2022-11-04T00:11:17;2.13;;;2.03;;
6207;SDS011;3137;51.550;7.060;2022-11-04T00:14:03;2.90;;;2.80;;
6207;SDS011;3137;51.550;7.060;2022-11-04T00:16:29;4.33;;;2.90;;
6207;SDS011;3137;51.550;7.060;2022-11-04T00:19:28;2.20;;;2.20;;
6207;SDS011;3137;51.550;7.060;2022-11-04T00:22:15;2.40;;;2.40;;
6207;SDS011;3137;51.550;7.060;2022-11-04T00:25:00;2.77;;;2.77;;
6207;SDS011;3137;51.550;7.060;2022-11-04T00:27:45;2.60;;;2.60;;
6207;SDS011;3137;51.550;7.060;2022-11-04T00:30:31;2.87;;;2.77;;
6207;SDS011;3137;51.550;7.060;2022-11-04T00:32:57;2.17;;;2.17;;
6207;SDS011;3137;51.550;7.060;2022-11-04T00:35:48;2.43;;;2.43;;
6207;SDS011;3137;51.550;7.060;2022-11-04T00:38:15;2.80;;;2.80;;
6207;SDS011;3137;51.550;7.060;2022-11-04T00:40:43;2.97;;;2.77;;
6207;SDS011;3137;51.550;7.060;2022-11-04T00:43:09;3.00;;;3.00;;
6207;SDS011;3137;51.550;7.060;2022-11-04T00:45:36;2.63;;;2.63;;
6207;SDS011;3137;51.550;7.060;2022-11-04T00:48:05;3.60;;;2.93;;
6207;SDS011;3137;51.550;7.060;2022-11-04T00:50:32;4.20;;;2.50;;
6207;SDS011;3137;51.550;7.060;2022-11-04T00:52:58;3.07;;;3.00;;
6207;SDS011;3137;51.550;7.060;2022-11-04T00:55:28;3.10;;;2.97;;
6207;SDS011;3137;51.550;7.060;2022-11-04T00:57:54;2.70;;;2.70;;
6207;SDS011;3137;51.550;7.060;2022-11-04T01:00:23;2.77;;;2.70;;
6207;SDS011;3137;51.550;7.060;2022-11-04T01:02:49;3.10;;;3.00;;
6207;SDS011;3137;51.550;7.060;2022-11-04T01:05:16;3.10;;;3.10;;
6207;SDS011;3137;51.550;7.060;2022-11-04T01:07:42;2.77;;;2.67;;
6207;SDS011;3137;51.550;7.060;2022-11-04T01:10:09;3.07;;;2.90;;
6207;SDS011;3137;51.550;7.060;2022-11-04T01:12:36;3.27;;;3.27;;
6207;SDS011;3137;51.550;7.060;2022-11-04T01:15:02;3.80;;;3.73;;
6207;SDS011;3137;51.550;7.060;2022-11-04T01:17:29;3.57;;;3.47;;
6207;SDS011;3137;51.550;7.060;2022-11-04T01:19:55;3.70;;;3.70;;
6207;SDS011;3137;51.550;7.060;2022-11-04T01:22:21;4.67;;;4.40;;
6207;SDS011;3137;51.550;7.060;2022-11-04T01:24:48;4.37;;;3.93;;
6207;SDS011;3137;51.550;7.060;2022-11-04T01:27:14;4.57;;;4.37;;
6207;SDS011;3137;51.550;7.060;2022-11-04T01:29:40;4.50;;;4.20;;
6207;SDS011;3137;51.550;7.060;2022-11-04T01:32:07;4.77;;;4.63;;
6207;SDS011;3137;51.550;7.060;2022-11-04T01:34:33;3.90;;;3.90;;
6207;SDS011;3137;51.550;7.060;2022-11-04T01:37:07;4.40;;;4.40;;
6207;SDS011;3137;51.550;7.060;2022-11-04T01:39:34;4.43;;;4.27;;
6207;SDS011;3137;51.550;7.060;2022-11-04T01:42:00;5.40;;;5.30;;
6207;SDS011;3137;51.550;7.060;2022-11-04T01:47:20;6.67;;;6.37;;
6207;SDS011;3137;51.550;7.060;2022-11-04T01:50:00;5.73;;;5.60;;
6207;SDS011;3137;51.550;7.060;2022-11-04T01:52:48;5.20;;;4.90;;
6207;SDS011;3137;51.550;7.060;2022-11-04T01:55:20;5.73;;;5.63;;
6207;SDS011;3137;51.550;7.060;2022-11-04T01:57:49;4.80;;;4.80;;
6207;SDS011;3137;51.550;7.060;2022-11-04T02:00:18;4.40;;;4.30;;
6207;SDS011;3137;51.550;7.060;2022-11-04T02:03:29;5.07;;;4.97;;
6207;SDS011;3137;51.550;7.060;2022-11-04T02:05:43;5.90;;;5.60;;
6207;SDS011;3137;51.550;7.060;2022-11-04T02:08:13;6.60;;;6.27;;
6207;SDS011;3137;51.550;7.060;2022-11-04T02:10:41;5.20;;;5.00;;
6207;SDS011;3137;51.550;7.060;2022-11-04T02:13:14;5.10;;;5.00;;
6207;SDS011;3137;51.550;7.060;2022-11-04T02:18:53;6.27;;;6.17;;
6207;SDS011;3137;51.550;7.060;2022-11-04T02:24:26;4.40;;;4.40;;
6207;SDS011;3137;51.550;7.060;2022-11-04T02:35:07;5.87;;;5.13;;
6207;SDS011;3137;51.550;7.060;2022-11-04T02:43:24;4.60;;;4.40;;
6207;SDS011;3137;51.550;7.060;2022-11-04T02:46:10;8.97;;;4.87;;
6207;SDS011;3137;51.550;7.060;2022-11-04T02:48:47;5.57;;;5.10;;
6207;SDS011;3137;51.550;7.060;2022-11-04T02:51:20;4.93;;;4.83;;
6207;SDS011;3137;51.550;7.060;2022-11-04T02:54:02;4.77;;;4.47;;
6207;SDS011;3137;51.550;7.060;2022-11-04T02:56:35;4.13;;;4.00;;
6207;SDS011;3137;51.550;7.060;2022-11-04T02:59:10;4.50;;;4.40;;
6207;SDS011;3137;51.550;7.060;2022-11-04T03:01:42;5.80;;;4.80;;
6207;SDS011;3137;51.550;7.060;2022-11-04T03:04:13;5.00;;;4.60;;
6207;SDS011;3137;51.550;7.060;2022-11-04T03:06:44;9.37;;;4.47;;
6207;SDS011;3137;51.550;7.060;2022-11-04T03:09:14;4.93;;;4.70;;
6207;SDS011;3137;51.550;7.060;2022-11-04T03:11:44;6.03;;;4.13;;
6207;SDS011;3137;51.550;7.060;2022-11-04T03:14:17;3.67;;;3.53;;
6207;SDS011;3137;51.550;7.060;2022-11-04T03:16:47;3.67;;;3.57;;
6207;SDS011;3137;51.550;7.060;2022-11-04T03:22:22;3.43;;;3.30;;
6207;SDS011;3137;51.550;7.060;2022-11-04T03:24:51;3.60;;;3.00;;
6207;SDS011;3137;51.550;7.060;2022-11-04T03:30:01;2.50;;;2.37;;
6207;SDS011;3137;51.550;7.060;2022-11-04T03:35:25;3.73;;;3.07;;
6207;SDS011;3137;51.550;7.060;2022-11-04T03:37:53;2.60;;;2.47;;
6207;SDS011;3137;51.550;7.060;2022-11-04T03:40:19;2.83;;;2.73;;
6207;SDS011;3137;51.550;7.060;2022-11-04T03:42:58;3.20;;;2.90;;
6207;SDS011;3137;51.550;7.060;2022-11-04T03:45:28;2.13;;;2.13;;
6207;SDS011;3137;51.550;7.060;2022-11-04T03:47:55;3.37;;;3.17;;
6207;SDS011;3137;51.550;7.060;2022-11-04T03:50:29;2.87;;;2.77;;
6207;SDS011;3137;51.550;7.060;2022-11-04T03:52:57;3.03;;;2.97;;
6207;SDS011;3137;51.550;7.060;2022-11-04T03:55:27;3.43;;;2.77;;
6207;SDS011;3137;51.550;7.060;2022-11-04T03:58:07;2.53;;;2.20;;
6207;SDS011;3137;51.550;7.060;2022-11-04T04:00:41;7.60;;;2.23;;
6207;SDS011;3137;51.550;7.060;2022-11-04T04:03:17;6.60;;;2.33;;
6207;SDS011;3137;51.550;7.060;2022-11-04T04:05:51;4.43;;;2.77;;
6207;SDS011;3137;51.550;7.060;2022-11-04T04:08:34;3.23;;;3.07;;
6207;SDS011;3137;51.550;7.060;2022-11-04T04:11:18;2.63;;;2.53;;
6207;SDS011;3137;51.550;7.060;2022-11-04T04:16:31;2.40;;;2.40;;
6207;SDS011;3137;51.550;7.060;2022-11-04T04:19:11;12.73;;;3.67;;
6207;SDS011;3137;51.550;7.060;2022-11-04T04:21:45;8.37;;;2.73;;
6207;SDS011;3137;51.550;7.060;2022-11-04T04:24:17;3.00;;;2.80;;
6207;SDS011;3137;51.550;7.060;2022-11-04T04:27:06;3.07;;;2.90;;
6207;SDS011;3137;51.550;7.060;2022-11-04T04:29:51;2.50;;;2.47;;
6207;SDS011;3137;51.550;7.060;2022-11-04T04:32:19;2.43;;;2.30;;
6207;SDS011;3137;51.550;7.060;2022-11-04T04:34:49;5.17;;;3.10;;
6207;SDS011;3137;51.550;7.060;2022-11-04T04:37:22;7.97;;;3.03;;
6207;SDS011;3137;51.550;7.060;2022-11-04T04:39:56;6.43;;;3.20;;
6207;SDS011;3137;51.550;7.060;2022-11-04T04:42:50;4.70;;;2.30;;
6207;SDS011;3137;51.550;7.060;2022-11-04T04:45:37;3.07;;;2.83;;
6207;SDS011;3137;51.550;7.060;2022-11-04T04:48:07;3.63;;;3.20;;
6207;SDS011;3137;51.550;7.060;2022-11-04T04:50:38;3.00;;;2.90;;
6207;SDS011;3137;51.550;7.060;2022-11-04T04:53:07;2.50;;;2.30;;
6207;SDS011;3137;51.550;7.060;2022-11-04T04:55:34;3.40;;;3.20;;
6207;SDS011;3137;51.550;7.060;2022-11-04T04:58:07;3.20;;;2.93;;
6207;SDS011;3137;51.550;7.060;2022-11-04T05:00:34;3.07;;;2.83;;
6207;SDS011;3137;51.550;7.060;2022-11-04T05:03:00;2.90;;;2.73;;
6207;SDS011;3137;51.550;7.060;2022-11-04T05:05:27;3.93;;;3.73;;
6207;SDS011;3137;51.550;7.060;2022-11-04T05:07:53;4.47;;;3.50;;
6207;SDS011;3137;51.550;7.060;2022-11-04T05:10:20;3.03;;;2.90;;
6207;SDS011;3137;51.550;7.060;2022-11-04T05:12:46;3.13;;;2.93;;
6207;SDS011;3137;51.550;7.060;2022-11-04T05:15:31;3.53;;;3.07;;
6207;SDS011;3137;51.550;7.060;2022-11-04T05:17:58;5.53;;;2.90;;
6207;SDS011;3137;51.550;7.060;2022-11-04T05:20:26;4.90;;;2.83;;
6207;SDS011;3137;51.550;7.060;2022-11-04T05:22:55;3.40;;;3.10;;
6207;SDS011;3137;51.550;7.060;2022-11-04T05:25:21;3.33;;;3.33;;
6207;SDS011;3137;51.550;7.060;2022-11-04T05:27:47;3.00;;;2.90;;
6207;SDS011;3137;51.550;7.060;2022-11-04T05:30:14;2.33;;;2.27;;
6207;SDS011;3137;51.550;7.060;2022-11-04T05:32:40;8.47;;;2.47;;
6207;SDS011;3137;51.550;7.060;2022-11-04T05:35:07;3.23;;;3.03;;
6207;SDS011;3137;51.550;7.060;2022-11-04T05:37:33;5.43;;;3.17;;
6207;SDS011;3137;51.550;7.060;2022-11-04T05:40:00;3.73;;;3.60;;
6207;SDS011;3137;51.550;7.060;2022-11-04T05:42:26;6.07;;;3.10;;
6207;SDS011;3137;51.550;7.060;2022-11-04T05:44:53;2.73;;;2.63;;
6207;SDS011;3137;51.550;7.060;2022-11-04T05:47:19;2.73;;;2.73;;
6207;SDS011;3137;51.550;7.060;2022-11-04T05:49:45;6.03;;;3.27;;
6207;SDS011;3137;51.550;7.060;2022-11-04T05:52:12;2.73;;;2.63;;
6207;SDS011;3137;51.550;7.060;2022-11-04T05:54:38;3.47;;;3.43;;
6207;SDS011;3137;51.550;7.060;2022-11-04T05:57:04;3.30;;;3.10;;
6207;SDS011;3137;51.550;7.060;2022-11-04T05:59:31;7.70;;;2.73;;
6207;SDS011;3137;51.550;7.060;2022-11-04T06:01:57;6.10;;;3.30;;
6207;SDS011;3137;51.550;7.060;2022-11-04T06:04:23;3.40;;;3.27;;
6207;SDS011;3137;51.550;7.060;2022-11-04T06:06:50;7.43;;;3.63;;
6207;SDS011;3137;51.550;7.060;2022-11-04T06:09:16;3.50;;;3.30;;
6207;SDS011;3137;51.550;7.060;2022-11-04T06:11:43;2.73;;;2.53;;
6207;SDS011;3137;51.550;7.060;2022-11-04T06:14:10;3.37;;;3.27;;
6207;SDS011;3137;51.550;7.060;2022-11-04T06:16:43;3.40;;;3.20;;
6207;SDS011;3137;51.550;7.060;2022-11-04T06:19:10;6.30;;;3.10;;
6207;SDS011;3137;51.550;7.060;2022-11-04T06:21:41;3.20;;;3.00;;
6207;SDS011;3137;51.550;7.060;2022-11-04T06:24:07;3.33;;;3.07;;
6207;SDS011;3137;51.550;7.060;2022-11-04T06:26:34;4.00;;;3.60;;
6207;SDS011;3137;51.550;7.060;2022-11-04T06:29:00;8.27;;;3.67;;
6207;SDS011;3137;51.550;7.060;2022-11-04T06:31:26;3.97;;;3.80;;
6207;SDS011;3137;51.550;7.060;2022-11-04T06:33:53;3.30;;;3.20;;
6207;SDS011;3137;51.550;7.060;2022-11-04T06:36:19;4.10;;;3.80;;
6207;SDS011;3137;51.550;7.060;2022-11-04T06:38:46;8.40;;;3.50;;
6207;SDS011;3137;51.550;7.060;2022-11-04T06:41:13;3.37;;;3.27;;
6207;SDS011;3137;51.550;7.060;2022-11-04T06:43:41;3.37;;;3.17;;
6207;SDS011;3137;51.550;7.060;2022-11-04T06:46:22;3.17;;;3.00;;
6207;SDS011;3137;51.550;7.060;2022-11-04T06:49:06;3.40;;;3.30;;
6207;SDS011;3137;51.550;7.060;2022-11-04T06:51:36;3.17;;;3.07;;
6207;SDS011;3137;51.550;7.060;2022-11-04T06:54:03;3.77;;;3.47;;
6207;SDS011;3137;51.550;7.060;2022-11-04T06:56:29;5.53;;;3.87;;
6207;SDS011;3137;51.550;7.060;2022-11-04T06:58:56;5.03;;;3.03;;
6207;SDS011;3137;51.550;7.060;2022-11-04T07:01:24;4.23;;;3.20;;
6207;SDS011;3137;51.550;7.060;2022-11-04T07:03:54;3.90;;;3.80;;
6207;SDS011;3137;51.550;7.060;2022-11-04T07:06:22;4.00;;;3.80;;
6207;SDS011;3137;51.550;7.060;2022-11-04T07:08:50;4.20;;;3.30;;
6207;SDS011;3137;51.550;7.060;2022-11-04T07:11:18;7.77;;;3.30;;
6207;SDS011;3137;51.550;7.060;2022-11-04T07:13:46;4.57;;;4.00;;
6207;SDS011;3137;51.550;7.060;2022-11-04T07:16:13;4.20;;;3.90;;
6207;SDS011;3137;51.550;7.060;2022-11-04T07:18:40;3.20;;;3.10;;
6207;SDS011;3137;51.550;7.060;2022-11-04T07:21:07;3.87;;;3.73;;
6207;SDS011;3137;51.550;7.060;2022-11-04T07:23:35;5.73;;;4.07;;
6207;SDS011;3137;51.550;7.060;2022-11-04T07:26:03;4.47;;;4.10;;
6207;SDS011;3137;51.550;7.060;2022-11-04T07:28:31;6.93;;;3.90;;
6207;SDS011;3137;51.550;7.060;2022-11-04T07:30:59;10.80;;;3.70;;
6207;SDS011;3137;51.550;7.060;2022-11-04T07:33:26;5.03;;;3.30;;
6207;SDS011;3137;51.550;7.060;2022-11-04T07:35:53;3.73;;;3.53;;
6207;SDS011;3137;51.550;7.060;2022-11-04T07:38:23;4.30;;;4.10;;
6207;SDS011;3137;51.550;7.060;2022-11-04T07:40:50;4.23;;;4.03;;
6207;SDS011;3137;51.550;7.060;2022-11-04T07:43:16;5.47;;;5.00;;
6207;SDS011;3137;51.550;7.060;2022-11-04T07:45:43;6.87;;;6.47;;
6207;SDS011;3137;51.550;7.060;2022-11-04T07:48:10;5.50;;;5.10;;
6207;SDS011;3137;51.550;7.060;2022-11-04T07:50:38;6.33;;;5.17;;
6207;SDS011;3137;51.550;7.060;2022-11-04T07:53:05;5.03;;;4.60;;
6207;SDS011;3137;51.550;7.060;2022-11-04T07:55:35;4.17;;;4.00;;
6207;SDS011;3137;51.550;7.060;2022-11-04T07:58:08;4.83;;;4.57;;
6207;SDS011;3137;51.550;7.060;2022-11-04T08:00:36;4.83;;;4.50;;
6207;SDS011;3137;51.550;7.060;2022-11-04T08:03:02;4.67;;;4.47;;
6207;SDS011;3137;51.550;7.060;2022-11-04T08:05:28;5.87;;;5.30;;
6207;SDS011;3137;51.550;7.060;2022-11-04T08:07:55;12.97;;;6.10;;
6207;SDS011;3137;51.550;7.060;2022-11-04T08:10:22;4.40;;;4.20;;
6207;SDS011;3137;51.550;7.060;2022-11-04T08:12:49;4.73;;;4.27;;
6207;SDS011;3137;51.550;7.060;2022-11-04T08:15:16;6.87;;;4.47;;
6207;SDS011;3137;51.550;7.060;2022-11-04T08:17:43;4.40;;;4.10;;
6207;SDS011;3137;51.550;7.060;2022-11-04T08:20:09;4.77;;;4.00;;
6207;SDS011;3137;51.550;7.060;2022-11-04T08:22:36;3.87;;;3.57;;
6207;SDS011;3137;51.550;7.060;2022-11-04T08:25:03;11.53;;;4.33;;
6207;SDS011;3137;51.550;7.060;2022-11-04T08:27:29;5.57;;;5.10;;
6207;SDS011;3137;51.550;7.060;2022-11-04T08:29:55;5.80;;;5.60;;
6207;SDS011;3137;51.550;7.060;2022-11-04T08:32:22;5.57;;;5.17;;
6207;SDS011;3137;51.550;7.060;2022-11-04T08:34:48;14.47;;;5.30;;
6207;SDS011;3137;51.550;7.060;2022-11-04T08:37:15;5.57;;;5.10;;
6207;SDS011;3137;51.550;7.060;2022-11-04T08:39:42;10.00;;;5.27;;
6207;SDS011;3137;51.550;7.060;2022-11-04T08:42:08;7.13;;;4.70;;
6207;SDS011;3137;51.550;7.060;2022-11-04T08:44:35;5.67;;;5.23;;
6207;SDS011;3137;51.550;7.060;2022-11-04T08:47:02;9.43;;;3.87;;
6207;SDS011;3137;51.550;7.060;2022-11-04T08:49:29;7.40;;;3.57;;
6207;SDS011;3137;51.550;7.060;2022-11-04T08:51:55;2.60;;;2.60;;
6207;SDS011;3137;51.550;7.060;2022-11-04T08:54:26;3.50;;;3.30;;
6207;SDS011;3137;51.550;7.060;2022-11-04T08:56:52;3.03;;;2.90;;
6207;SDS011;3137;51.550;7.060;2022-11-04T08:59:19;3.70;;;3.10;;
6207;SDS011;3137;51.550;7.060;2022-11-04T09:01:45;6.53;;;3.53;;
6207;SDS011;3137;51.550;7.060;2022-11-04T09:04:12;3.50;;;2.40;;
6207;SDS011;3137;51.550;7.060;2022-11-04T09:06:40;3.03;;;2.73;;
6207;SDS011;3137;51.550;7.060;2022-11-04T09:09:09;5.60;;;3.20;;
6207;SDS011;3137;51.550;7.060;2022-11-04T09:11:39;6.73;;;3.17;;
6207;SDS011;3137;51.550;7.060;2022-11-04T09:14:06;7.63;;;3.90;;
6207;SDS011;3137;51.550;7.060;2022-11-04T09:16:33;6.63;;;3.77;;
6207;SDS011;3137;51.550;7.060;2022-11-04T09:19:00;3.03;;;2.67;;
6207;SDS011;3137;51.550;7.060;2022-11-04T09:21:27;3.60;;;2.97;;
6207;SDS011;3137;51.550;7.060;2022-11-04T09:23:54;6.43;;;3.33;;
6207;SDS011;3137;51.550;7.060;2022-11-04T09:26:21;7.27;;;2.60;;
6207;SDS011;3137;51.550;7.060;2022-11-04T09:28:55;5.23;;;2.83;;
6207;SDS011;3137;51.550;7.060;2022-11-04T09:31:23;3.83;;;2.87;;
6207;SDS011;3137;51.550;7.060;2022-11-04T09:33:52;5.40;;;4.53;;
6207;SDS011;3137;51.550;7.060;2022-11-04T09:36:19;3.70;;;3.40;;
6207;SDS011;3137;51.550;7.060;2022-11-04T09:38:46;3.60;;;3.30;;
6207;SDS011;3137;51.550;7.060;2022-11-04T09:43:57;6.87;;;3.93;;
6207;SDS011;3137;51.550;7.060;2022-11-04T09:46:26;3.90;;;3.20;;
6207;SDS011;3137;51.550;7.060;2022-11-04T09:48:57;3.80;;;3.27;;
6207;SDS011;3137;51.550;7.060;2022-11-04T09:51:27;3.93;;;2.87;;
6207;SDS011;3137;51.550;7.060;2022-11-04T09:56:57;2.87;;;2.73;;
6207;SDS011;3137;51.550;7.060;2022-11-04T09:59:27;3.60;;;3.43;;
6207;SDS011;3137;51.550;7.060;2022-11-04T10:02:01;3.20;;;2.27;;
6207;SDS011;3137;51.550;7.060;2022-11-04T10:04:53;8.50;;;3.17;;
6207;SDS011;3137;51.550;7.060;2022-11-04T10:07:38;4.43;;;3.00;;
6207;SDS011;3137;51.550;7.060;2022-11-04T10:10:20;3.20;;;3.10;;
6207;SDS011;3137;51.550;7.060;2022-11-04T10:16:55;2.80;;;2.67;;
6207;SDS011;3137;51.550;7.060;2022-11-04T10:24:07;7.13;;;3.40;;
6207;SDS011;3137;51.550;7.060;2022-11-04T10:26:45;7.10;;;2.87;;
6207;SDS011;3137;51.550;7.060;2022-11-04T10:29:32;2.93;;;2.83;;
6207;SDS011;3137;51.550;7.060;2022-11-04T10:32:04;2.57;;;2.57;;
6207;SDS011;3137;51.550;7.060;2022-11-04T10:34:49;5.40;;;3.80;;
6207;SDS011;3137;51.550;7.060;2022-11-04T10:37:20;5.97;;;2.90;;
6207;SDS011;3137;51.550;7.060;2022-11-04T10:39:50;4.03;;;2.97;;
6207;SDS011;3137;51.550;7.060;2022-11-04T10:42:20;4.33;;;3.93;;
6207;SDS011;3137;51.550;7.060;2022-11-04T10:44:48;7.97;;;3.47;;
6207;SDS011;3137;51.550;7.060;2022-11-04T10:47:39;3.40;;;3.20;;
6207;SDS011;3137;51.550;7.060;2022-11-04T10:53:15;3.43;;;3.23;;
6207;SDS011;3137;51.550;7.060;2022-11-04T10:58:33;4.37;;;3.27;;
6207;SDS011;3137;51.550;7.060;2022-11-04T11:01:21;3.07;;;2.97;;
6207;SDS011;3137;51.550;7.060;2022-11-04T11:03:57;3.57;;;3.37;;
6207;SDS011;3137;51.550;7.060;2022-11-04T11:09:00;3.83;;;3.63;;
6207;SDS011;3137;51.550;7.060;2022-11-04T11:11:41;8.37;;;4.13;;
6207;SDS011;3137;51.550;7.060;2022-11-04T11:22:33;5.93;;;3.67;;
6207;SDS011;3137;51.550;7.060;2022-11-04T11:27:49;4.00;;;3.70;;
6207;SDS011;3137;51.550;7.060;2022-11-04T11:33:00;3.60;;;3.27;;
6207;SDS011;3137;51.550;7.060;2022-11-04T11:35:31;3.27;;;3.07;;
6207;SDS011;3137;51.550;7.060;2022-11-04T11:38:14;5.40;;;3.50;;
6207;SDS011;3137;51.550;7.060;2022-11-04T11:40:42;4.30;;;4.00;;
6207;SDS011;3137;51.550;7.060;2022-11-04T11:43:29;3.87;;;3.60;;
6207;SDS011;3137;51.550;7.060;2022-11-04T11:45:57;4.87;;;4.27;;
6207;SDS011;3137;51.550;7.060;2022-11-04T11:48:26;5.37;;;4.87;;
6207;SDS011;3137;51.550;7.060;2022-11-04T11:50:56;5.23;;;4.73;;
6207;SDS011;3137;51.550;7.060;2022-11-04T11:53:27;4.10;;;3.80;;
6207;SDS011;3137;51.550;7.060;2022-11-04T11:59:32;3.93;;;3.90;;
6207;SDS011;3137;51.550;7.060;2022-11-04T12:02:40;6.97;;;5.13;;
6207;SDS011;3137;51.550;7.060;2022-11-04T12:05:13;4.57;;;4.20;;
6207;SDS011;3137;51.550;7.060;2022-11-04T12:10:58;4.90;;;4.40;;
6207;SDS011;3137;51.550;7.060;2022-11-04T12:13:43;5.30;;;4.83;;
6207;SDS011;3137;51.550;7.060;2022-11-04T12:16:20;10.23;;;4.63;;
6207;SDS011;3137;51.550;7.060;2022-11-04T12:21:46;5.70;;;4.17;;
6207;SDS011;3137;51.550;7.060;2022-11-04T12:24:29;5.00;;;4.90;;
6207;SDS011;3137;51.550;7.060;2022-11-04T12:30:05;5.07;;;4.87;;
6207;SDS011;3137;51.550;7.060;2022-11-04T12:32:36;5.77;;;5.27;;
6207;SDS011;3137;51.550;7.060;2022-11-04T12:35:55;5.13;;;4.83;;
6207;SDS011;3137;51.550;7.060;2022-11-04T12:38:18;5.30;;;5.07;;
6207;SDS011;3137;51.550;7.060;2022-11-04T12:41:05;5.93;;;5.40;;
6207;SDS011;3137;51.550;7.060;2022-11-04T12:54:53;4.53;;;4.43;;
6207;SDS011;3137;51.550;7.060;2022-11-04T12:57:50;8.13;;;5.77;;
6207;SDS011;3137;51.550;7.060;2022-11-04T13:00:25;13.07;;;6.20;;
6207;SDS011;3137;51.550;7.060;2022-11-04T13:02:55;6.13;;;5.73;;
6207;SDS011;3137;51.550;7.060;2022-11-04T13:05:38;11.77;;;6.40;;
6207;SDS011;3137;51.550;7.060;2022-11-04T13:08:16;7.50;;;5.77;;
6207;SDS011;3137;51.550;7.060;2022-11-04T13:13:58;8.47;;;4.77;;
6207;SDS011;3137;51.550;7.060;2022-11-04T13:16:47;5.80;;;5.50;;
6207;SDS011;3137;51.550;7.060;2022-11-04T13:19:23;6.30;;;5.80;;
6207;SDS011;3137;51.550;7.060;2022-11-04T13:22:08;5.53;;;5.07;;
6207;SDS011;3137;51.550;7.060;2022-11-04T13:24:39;7.43;;;5.80;;
6207;SDS011;3137;51.550;7.060;2022-11-04T13:27:23;5.67;;;5.30;;
6207;SDS011;3137;51.550;7.060;2022-11-04T13:29:56;7.40;;;6.70;;
6207;SDS011;3137;51.550;7.060;2022-11-04T13:32:48;8.53;;;7.13;;
6207;SDS011;3137;51.550;7.060;2022-11-04T13:35:30;7.80;;;6.77;;
6207;SDS011;3137;51.550;7.060;2022-11-04T13:38:06;11.33;;;8.97;;
6207;SDS011;3137;51.550;7.060;2022-11-04T13:43:45;8.80;;;7.97;;
6207;SDS011;3137;51.550;7.060;2022-11-04T13:46:27;8.87;;;7.23;;
6207;SDS011;3137;51.550;7.060;2022-11-04T13:51:34;10.60;;;9.23;;
6207;SDS011;3137;51.550;7.060;2022-11-04T13:54:05;12.53;;;9.00;;
6207;SDS011;3137;51.550;7.060;2022-11-04T13:56:35;13.33;;;9.00;;
6207;SDS011;3137;51.550;7.060;2022-11-04T14:04:39;14.23;;;8.17;;
6207;SDS011;3137;51.550;7.060;2022-11-04T14:07:12;13.37;;;9.10;;
6207;SDS011;3137;51.550;7.060;2022-11-04T14:14:42;9.23;;;8.43;;
6207;SDS011;3137;51.550;7.060;2022-11-04T14:25:29;10.00;;;8.97;;
6207;SDS011;3137;51.550;7.060;2022-11-04T14:27:58;12.63;;;8.87;;
6207;SDS011;3137;51.550;7.060;2022-11-04T14:39:01;9.57;;;6.57;;
6207;SDS011;3137;51.550;7.060;2022-11-04T14:44:17;8.23;;;7.43;;
6207;SDS011;3137;51.550;7.060;2022-11-04T14:46:47;7.93;;;7.07;;
6207;SDS011;3137;51.550;7.060;2022-11-04T14:49:36;6.83;;;6.40;;
6207;SDS011;3137;51.550;7.060;2022-11-04T14:52:04;8.37;;;6.17;;
6207;SDS011;3137;51.550;7.060;2022-11-04T14:54:40;8.33;;;6.07;;
6207;SDS011;3137;51.550;7.060;2022-11-04T14:57:14;10.80;;;6.43;;
6207;SDS011;3137;51.550;7.060;2022-11-04T14:59:40;5.50;;;5.20;;
6207;SDS011;3137;51.550;7.060;2022-11-04T15:02:17;7.27;;;5.50;;
6207;SDS011;3137;51.550;7.060;2022-11-04T15:04:57;15.57;;;4.93;;
6207;SDS011;3137;51.550;7.060;2022-11-04T15:07:31;6.40;;;6.00;;
6207;SDS011;3137;51.550;7.060;2022-11-04T15:10:17;6.07;;;5.40;;
6207;SDS011;3137;51.550;7.060;2022-11-04T15:12:46;10.33;;;5.73;;
6207;SDS011;3137;51.550;7.060;2022-11-04T15:15:58;6.30;;;5.80;;
6207;SDS011;3137;51.550;7.060;2022-11-04T15:18:14;6.67;;;5.70;;
6207;SDS011;3137;51.550;7.060;2022-11-04T15:20:54;4.97;;;4.67;;
6207;SDS011;3137;51.550;7.060;2022-11-04T15:23:26;4.97;;;4.77;;
6207;SDS011;3137;51.550;7.060;2022-11-04T15:25:56;5.70;;;4.90;;
6207;SDS011;3137;51.550;7.060;2022-11-04T15:28:25;8.10;;;4.93;;
6207;SDS011;3137;51.550;7.060;2022-11-04T15:30:58;4.73;;;4.23;;
6207;SDS011;3137;51.550;7.060;2022-11-04T15:33:31;9.00;;;4.37;;
6207;SDS011;3137;51.550;7.060;2022-11-04T15:36:01;6.70;;;4.47;;
6207;SDS011;3137;51.550;7.060;2022-11-04T15:38:28;4.17;;;3.87;;
6207;SDS011;3137;51.550;7.060;2022-11-04T15:40:55;5.37;;;4.33;;
6207;SDS011;3137;51.550;7.060;2022-11-04T15:43:44;6.13;;;4.63;;
6207;SDS011;3137;51.550;7.060;2022-11-04T15:46:17;4.50;;;4.20;;
6207;SDS011;3137;51.550;7.060;2022-11-04T15:49:00;12.27;;;4.40;;
6207;SDS011;3137;51.550;7.060;2022-11-04T15:51:30;4.77;;;4.37;;
6207;SDS011;3137;51.550;7.060;2022-11-04T15:54:03;5.10;;;4.63;;
6207;SDS011;3137;51.550;7.060;2022-11-04T15:56:43;6.20;;;5.57;;
6207;SDS011;3137;51.550;7.060;2022-11-04T15:59:18;5.80;;;5.13;;
6207;SDS011;3137;51.550;7.060;2022-11-04T16:01:49;13.97;;;6.60;;
6207;SDS011;3137;51.550;7.060;2022-11-04T16:04:19;6.00;;;5.63;;
6207;SDS011;3137;51.550;7.060;2022-11-04T16:07:00;7.80;;;6.23;;
6207;SDS011;3137;51.550;7.060;2022-11-04T16:09:29;6.27;;;5.67;;
6207;SDS011;3137;51.550;7.060;2022-11-04T16:14:29;6.63;;;6.20;;
6207;SDS011;3137;51.550;7.060;2022-11-04T16:16:56;7.27;;;6.27;;
6207;SDS011;3137;51.550;7.060;2022-11-04T16:19:25;6.73;;;6.43;;
6207;SDS011;3137;51.550;7.060;2022-11-04T16:22:02;8.23;;;7.53;;
6207;SDS011;3137;51.550;7.060;2022-11-04T16:24:32;7.50;;;6.33;;
6207;SDS011;3137;51.550;7.060;2022-11-04T16:27:01;6.97;;;6.37;;
6207;SDS011;3137;51.550;7.060;2022-11-04T16:29:31;7.33;;;6.73;;
6207;SDS011;3137;51.550;7.060;2022-11-04T16:32:05;9.10;;;6.80;;
6207;SDS011;3137;51.550;7.060;2022-11-04T16:34:32;8.20;;;7.13;;
6207;SDS011;3137;51.550;7.060;2022-11-04T16:36:59;11.60;;;7.37;;
6207;SDS011;3137;51.550;7.060;2022-11-04T16:39:26;8.17;;;6.97;;
6207;SDS011;3137;51.550;7.060;2022-11-04T16:41:52;7.97;;;7.43;;
6207;SDS011;3137;51.550;7.060;2022-11-04T16:44:19;7.77;;;7.40;;
6207;SDS011;3137;51.550;7.060;2022-11-04T16:46:47;18.13;;;8.80;;
6207;SDS011;3137;51.550;7.060;2022-11-04T16:49:14;10.40;;;9.37;;
6207;SDS011;3137;51.550;7.060;2022-11-04T16:51:43;10.50;;;9.40;;
6207;SDS011;3137;51.550;7.060;2022-11-04T16:54:10;10.40;;;9.43;;
6207;SDS011;3137;51.550;7.060;2022-11-04T16:56:36;13.20;;;9.20;;
6207;SDS011;3137;51.550;7.060;2022-11-04T16:59:03;11.33;;;9.07;;
6207;SDS011;3137;51.550;7.060;2022-11-04T17:01:30;15.80;;;10.37;;
6207;SDS011;3137;51.550;7.060;2022-11-04T17:03:57;12.93;;;10.27;;
6207;SDS011;3137;51.550;7.060;2022-11-04T17:06:23;11.53;;;9.10;;
6207;SDS011;3137;51.550;7.060;2022-11-04T17:08:50;10.83;;;9.47;;
6207;SDS011;3137;51.550;7.060;2022-11-04T17:11:17;14.07;;;10.87;;
6207;SDS011;3137;51.550;7.060;2022-11-04T17:13:43;13.20;;;9.47;;
6207;SDS011;3137;51.550;7.060;2022-11-04T17:16:10;13.63;;;10.20;;
6207;SDS011;3137;51.550;7.060;2022-11-04T17:18:38;15.37;;;10.77;;
6207;SDS011;3137;51.550;7.060;2022-11-04T17:21:06;11.93;;;10.10;;
6207;SDS011;3137;51.550;7.060;2022-11-04T17:23:34;15.07;;;10.67;;
6207;SDS011;3137;51.550;7.060;2022-11-04T17:26:00;16.97;;;12.50;;
6207;SDS011;3137;51.550;7.060;2022-11-04T17:28:27;12.20;;;10.93;;
6207;SDS011;3137;51.550;7.060;2022-11-04T17:30:53;16.17;;;10.67;;
6207;SDS011;3137;51.550;7.060;2022-11-04T17:33:19;15.47;;;12.33;;
6207;SDS011;3137;51.550;7.060;2022-11-04T17:35:46;21.80;;;12.53;;
6207;SDS011;3137;51.550;7.060;2022-11-04T17:38:15;20.50;;;12.20;;
6207;SDS011;3137;51.550;7.060;2022-11-04T17:40:43;16.93;;;12.17;;
6207;SDS011;3137;51.550;7.060;2022-11-04T17:43:28;14.13;;;12.20;;
6207;SDS011;3137;51.550;7.060;2022-11-04T17:46:13;15.87;;;13.20;;
6207;SDS011;3137;51.550;7.060;2022-11-04T17:48:59;15.00;;;12.27;;
6207;SDS011;3137;51.550;7.060;2022-11-04T17:51:28;12.37;;;10.60;;
6207;SDS011;3137;51.550;7.060;2022-11-04T17:53:55;12.80;;;10.73;;
6207;SDS011;3137;51.550;7.060;2022-11-04T17:56:22;11.17;;;10.27;;